Urb La Romana, Puerto Rico
Current Conditions -  °F | °C
As of 7:50 PM on Saturday 22 Nov 2014 (Local Time) from TJBQ Reporting Station
Broken Clouds Broken Clouds  
Wind Chill: 77°   Ceiling: 10000
Heat Index: 79°   Visibility: 10mi
Dew Point: 70°   Wind: 10mph
Humidity: 78%   Direction: 100°E
Pressure: 30.01"   Gusts: NA
Location:  18.4738°N, 66.9364°W
Report Text: TJBQ 222350Z 10009KT 10SM BKN100 25/21 A3001 RMK LTG DSNT W - RWY08 ATIS A
Loading
Personal Weather Stations






























Interactive Weather Map New forecast layout! Learn more

10-Day Weather Forecast

Advertisements
Track Severe Weather on mobile